X  Stänga Metar väderdata för luftfart     LZPP Piešťany Airport
Temperatur
29°C Temperatur
17°C Daggpunkt
48% Fuktighet



Vind
16 KM/T
10 MPH
4 M/S
9 KTS



160°
SSÖ
Nuvarande omständigheter

Klar Klar
Tryck 1016.93 (hPa) - 30.03 (inHg)
Synlighet 6 (mil) - 9.7 (km)
Flygplats
Flygplatskod LZPP

Plats: Piešťany Airport
Distans: 31 (km)

Metar:
LZPP 181130Z 16009KT 120V200 CAVOK 29/17 Q1017

Tid: 18-06-2024 13:30 CEST